createdAt,value
2022-11-24T00:00:17.414Z,3.57
2022-11-24T00:01:20.297Z,2.93
2022-11-24T00:02:21.965Z,2.83
2022-11-24T00:03:23.633Z,2.90
2022-11-24T00:04:25.338Z,2.60
2022-11-24T00:05:26.969Z,3.07
2022-11-24T00:06:28.848Z,3.10
2022-11-24T00:07:30.301Z,3.23
2022-11-24T00:08:31.992Z,2.90
2022-11-24T00:09:33.297Z,2.97
2022-11-24T00:10:34.627Z,3.10
2022-11-24T00:11:36.480Z,3.10
2022-11-24T00:12:37.785Z,3.03
2022-11-24T00:13:39.246Z,3.10
2022-11-24T00:14:40.639Z,3.00
2022-11-24T00:15:42.011Z,3.03
2022-11-24T00:16:43.363Z,2.87
2022-11-24T00:17:45.025Z,2.70
2022-11-24T00:18:47.502Z,2.77
2022-11-24T00:19:48.827Z,2.97
2022-11-24T00:20:53.227Z,3.07
2022-11-24T00:21:54.637Z,2.60
2022-11-24T00:22:55.969Z,2.67
2022-11-24T00:23:57.559Z,3.07
2022-11-24T00:24:58.872Z,3.10
2022-11-24T00:26:07.442Z,3.30
2022-11-24T00:27:08.807Z,3.27
2022-11-24T00:28:10.158Z,2.87
2022-11-24T00:29:11.886Z,2.67
2022-11-24T00:30:13.430Z,3.00
2022-11-24T00:31:17.451Z,2.73
2022-11-24T00:32:19.070Z,3.20
2022-11-24T00:33:20.385Z,3.07
2022-11-24T00:34:21.880Z,3.07
2022-11-24T00:35:23.226Z,3.07
2022-11-24T00:36:25.525Z,4.47
2022-11-24T00:37:26.837Z,2.63
2022-11-24T00:38:28.190Z,3.00
2022-11-24T00:39:29.536Z,2.90
2022-11-24T00:40:34.858Z,3.17
2022-11-24T00:41:36.616Z,3.43
2022-11-24T00:42:37.934Z,3.43
2022-11-24T00:43:39.282Z,2.93
2022-11-24T00:44:40.665Z,2.90
2022-11-24T00:45:42.483Z,3.23
2022-11-24T00:46:44.045Z,3.13
2022-11-24T00:47:45.990Z,3.20
2022-11-24T00:48:47.720Z,3.33
2022-11-24T00:49:49.247Z,2.93
2022-11-24T00:51:04.277Z,3.07
2022-11-24T00:52:05.573Z,3.43
2022-11-24T00:53:07.055Z,3.00
2022-11-24T00:54:08.472Z,4.10
2022-11-24T00:55:09.828Z,3.70
2022-11-24T00:56:11.737Z,3.40
2022-11-24T00:57:13.181Z,3.53
2022-11-24T00:58:14.512Z,3.60
2022-11-24T00:59:15.787Z,3.23
2022-11-24T01:00:17.496Z,3.43
2022-11-24T01:01:22.865Z,2.90
2022-11-24T01:02:24.267Z,3.47
2022-11-24T01:03:25.676Z,3.30
2022-11-24T01:04:26.985Z,3.33
2022-11-24T01:05:28.315Z,3.23
2022-11-24T01:06:30.226Z,3.83
2022-11-24T01:07:31.587Z,3.10
2022-11-24T01:08:33.162Z,3.10
2022-11-24T01:09:34.570Z,2.90
2022-11-24T01:10:36.036Z,3.47
2022-11-24T01:11:55.757Z,3.23
2022-11-24T01:12:57.421Z,2.80
2022-11-24T01:13:59.215Z,2.90
2022-11-24T01:15:00.532Z,2.77
2022-11-24T01:16:02.008Z,3.00
2022-11-24T01:17:03.453Z,2.63
2022-11-24T01:18:05.334Z,2.93
2022-11-24T01:19:06.659Z,2.83
2022-11-24T01:20:08.451Z,3.07
2022-11-24T01:21:10.493Z,3.27
2022-11-24T01:22:12.028Z,2.87
2022-11-24T01:23:13.346Z,2.53
2022-11-24T01:24:15.258Z,2.70
2022-11-24T01:25:16.709Z,2.70
2022-11-24T01:26:19.747Z,2.50
2022-11-24T01:27:21.128Z,2.70
2022-11-24T01:28:22.547Z,2.70
2022-11-24T01:29:23.900Z,2.97
2022-11-24T01:30:25.233Z,3.30
2022-11-24T01:31:26.981Z,2.53
2022-11-24T01:32:28.404Z,2.40
2022-11-24T01:33:30.036Z,2.37
2022-11-24T01:34:31.609Z,2.80
2022-11-24T01:35:33.128Z,2.63
2022-11-24T01:36:34.710Z,2.93
2022-11-24T01:37:36.070Z,2.40
2022-11-24T01:38:37.431Z,2.90
2022-11-24T01:39:38.755Z,2.40
2022-11-24T01:40:40.095Z,2.43
2022-11-24T01:41:41.517Z,2.77
2022-11-24T01:42:46.576Z,2.40
2022-11-24T01:43:48.505Z,2.87
2022-11-24T01:45:09.810Z,2.17
2022-11-24T01:46:21.630Z,2.87
2022-11-24T01:47:34.043Z,2.70
2022-11-24T01:48:42.467Z,2.90
2022-11-24T01:49:43.813Z,2.47
2022-11-24T01:50:45.663Z,3.10
2022-11-24T01:51:50.457Z,2.80
2022-11-24T01:52:53.683Z,3.00
2022-11-24T01:53:57.401Z,2.83
2022-11-24T01:55:01.373Z,2.70
2022-11-24T01:56:03.076Z,2.87
2022-11-24T01:57:10.162Z,2.50
2022-11-24T01:58:14.267Z,2.73
2022-11-24T01:59:16.445Z,2.93
2022-11-24T02:00:18.786Z,2.77
2022-11-24T02:01:20.516Z,2.40
2022-11-24T02:02:22.085Z,2.97
2022-11-24T02:03:25.261Z,2.47
2022-11-24T02:04:30.628Z,2.50
2022-11-24T02:05:40.496Z,3.50
2022-11-24T02:06:42.626Z,2.53
2022-11-24T02:07:44.253Z,2.60
2022-11-24T02:09:03.521Z,2.97
2022-11-24T02:10:09.976Z,2.50
2022-11-24T02:11:11.383Z,3.00
2022-11-24T02:12:12.779Z,2.87
2022-11-24T02:13:14.894Z,2.70
2022-11-24T02:14:18.029Z,2.30
2022-11-24T02:15:20.077Z,2.43
2022-11-24T02:16:21.547Z,2.57
2022-11-24T02:17:23.033Z,2.83
2022-11-24T02:18:24.384Z,2.67
2022-11-24T02:19:34.302Z,2.90
2022-11-24T02:20:36.735Z,3.20
2022-11-24T02:21:38.145Z,2.80
2022-11-24T02:22:53.614Z,2.60
2022-11-24T02:24:01.251Z,2.40
2022-11-24T02:25:02.617Z,2.70
2022-11-24T02:26:04.018Z,2.60
2022-11-24T02:27:05.467Z,2.80
2022-11-24T02:28:08.658Z,2.90
2022-11-24T02:29:11.604Z,2.80
2022-11-24T02:30:13.101Z,2.63
2022-11-24T02:31:14.664Z,2.20
2022-11-24T02:32:16.222Z,3.07
2022-11-24T02:33:18.712Z,3.10
2022-11-24T02:34:20.466Z,2.47
2022-11-24T02:35:22.172Z,2.33
2022-11-24T02:36:23.667Z,3.13
2022-11-24T02:37:25.012Z,2.90
2022-11-24T02:38:30.249Z,2.90
2022-11-24T02:39:31.562Z,3.03
2022-11-24T02:40:33.173Z,2.90
2022-11-24T02:41:34.680Z,2.97
2022-11-24T02:42:39.933Z,3.13
2022-11-24T02:43:43.262Z,3.30
2022-11-24T02:44:46.968Z,3.70
2022-11-24T02:45:48.561Z,3.13
2022-11-24T02:46:50.061Z,3.20
2022-11-24T02:47:51.386Z,3.07
2022-11-24T02:48:53.329Z,3.17
2022-11-24T02:49:54.655Z,3.57
2022-11-24T02:50:56.000Z,4.13
2022-11-24T02:51:57.533Z,3.73
2022-11-24T02:52:58.900Z,4.43
2022-11-24T02:54:00.702Z,3.93
2022-11-24T02:55:02.114Z,4.03
2022-11-24T02:56:03.522Z,4.03
2022-11-24T02:57:04.963Z,4.37
2022-11-24T02:58:06.365Z,3.40
2022-11-24T02:59:07.674Z,3.30
2022-11-24T03:00:09.370Z,2.97
2022-11-24T03:01:10.779Z,3.10
2022-11-24T03:02:12.432Z,2.97
2022-11-24T03:03:13.898Z,3.13
2022-11-24T03:04:15.321Z,2.90
2022-11-24T03:05:16.840Z,3.27
2022-11-24T03:06:18.151Z,3.10
2022-11-24T03:07:19.659Z,2.80
2022-11-24T03:08:21.119Z,3.63
2022-11-24T03:09:22.559Z,3.00
2022-11-24T03:10:24.469Z,3.57
2022-11-24T03:11:26.039Z,3.17
2022-11-24T03:12:27.405Z,3.10
2022-11-24T03:13:29.048Z,3.23
2022-11-24T03:14:30.409Z,2.73
2022-11-24T03:15:31.854Z,2.93
2022-11-24T03:16:33.339Z,2.53
2022-11-24T03:17:34.833Z,2.43
2022-11-24T03:18:36.272Z,2.50
2022-11-24T03:19:37.628Z,2.57
2022-11-24T03:20:38.988Z,2.43
2022-11-24T03:21:40.318Z,2.80
2022-11-24T03:22:41.666Z,2.70
2022-11-24T03:23:43.056Z,3.00
2022-11-24T03:24:44.618Z,2.60
2022-11-24T03:25:46.144Z,2.43
2022-11-24T03:26:47.649Z,3.03
2022-11-24T03:27:49.174Z,2.90
2022-11-24T03:28:53.174Z,2.80
2022-11-24T03:29:54.530Z,3.03
2022-11-24T03:30:55.919Z,3.20
2022-11-24T03:31:57.717Z,2.60
2022-11-24T03:32:59.095Z,2.67
2022-11-24T03:34:00.501Z,2.40
2022-11-24T03:35:01.971Z,2.80
2022-11-24T03:36:03.886Z,3.00
2022-11-24T03:37:05.433Z,2.60
2022-11-24T03:38:06.894Z,3.10
2022-11-24T03:39:08.313Z,2.90
2022-11-24T03:40:09.768Z,2.57
2022-11-24T03:41:11.155Z,3.20
2022-11-24T03:42:12.896Z,2.20
2022-11-24T03:43:14.243Z,2.80
2022-11-24T03:44:15.619Z,2.37
2022-11-24T03:45:44.144Z,3.00
2022-11-24T03:46:38.313Z,3.03
2022-11-24T03:47:39.939Z,2.50
2022-11-24T03:48:41.372Z,2.97
2022-11-24T03:49:42.890Z,2.30
2022-11-24T03:50:44.395Z,2.83
2022-11-24T03:51:45.884Z,2.67
2022-11-24T03:52:47.236Z,2.30
2022-11-24T03:53:48.565Z,2.67
2022-11-24T03:54:49.934Z,2.40
2022-11-24T03:55:51.811Z,3.07
2022-11-24T03:56:53.902Z,3.00
2022-11-24T03:57:55.238Z,3.10
2022-11-24T03:58:56.616Z,2.53
2022-11-24T03:59:58.853Z,2.60
2022-11-24T04:01:00.206Z,3.33
2022-11-24T04:02:01.710Z,2.63
2022-11-24T04:03:03.250Z,3.00
2022-11-24T04:04:04.747Z,2.77
2022-11-24T04:05:06.561Z,2.90
2022-11-24T04:06:07.950Z,3.17
2022-11-24T04:07:09.373Z,2.83
2022-11-24T04:08:10.917Z,2.50
2022-11-24T04:09:12.212Z,3.37
2022-11-24T04:10:13.649Z,2.50
2022-11-24T04:11:34.944Z,2.43
2022-11-24T04:12:45.396Z,2.87
2022-11-24T04:13:47.300Z,2.97
2022-11-24T04:14:48.682Z,2.23
2022-11-24T04:15:50.232Z,2.67
2022-11-24T04:16:51.622Z,2.87
2022-11-24T04:17:54.409Z,2.80
2022-11-24T04:18:55.960Z,2.77
2022-11-24T04:19:57.300Z,3.00
2022-11-24T04:20:58.622Z,2.23
2022-11-24T04:21:59.993Z,2.80
2022-11-24T04:23:01.471Z,3.27
2022-11-24T04:24:02.852Z,2.83
2022-11-24T04:25:04.924Z,3.00
2022-11-24T04:26:06.238Z,3.30
2022-11-24T04:27:07.541Z,3.20
2022-11-24T04:28:09.073Z,3.30
2022-11-24T04:29:10.430Z,2.90
2022-11-24T04:30:11.853Z,3.37
2022-11-24T04:31:13.228Z,3.10
2022-11-24T04:32:14.544Z,2.87
2022-11-24T04:33:15.929Z,2.83
2022-11-24T04:34:17.277Z,2.90
2022-11-24T04:35:18.887Z,3.00
2022-11-24T04:36:20.253Z,3.10
2022-11-24T04:37:21.582Z,2.87
2022-11-24T04:39:19.592Z,3.07
2022-11-24T04:39:45.001Z,2.90
2022-11-24T04:40:46.325Z,2.83
2022-11-24T04:41:48.207Z,3.37
2022-11-24T04:42:53.422Z,2.67
2022-11-24T04:43:54.774Z,3.10
2022-11-24T04:44:56.211Z,2.80
2022-11-24T04:46:01.296Z,3.10
2022-11-24T04:47:02.790Z,3.20
2022-11-24T04:48:04.595Z,2.90
2022-11-24T04:49:05.990Z,3.00
2022-11-24T04:50:07.660Z,3.40
2022-11-24T04:51:09.965Z,2.97
2022-11-24T04:52:11.273Z,2.97
2022-11-24T04:53:13.499Z,3.00
2022-11-24T04:54:15.131Z,3.17
2022-11-24T04:55:16.455Z,3.23
2022-11-24T04:56:17.796Z,3.20
2022-11-24T04:57:20.193Z,3.10
2022-11-24T04:58:21.582Z,3.70
2022-11-24T04:59:22.940Z,3.17
2022-11-24T05:00:24.290Z,3.13
2022-11-24T05:01:25.718Z,2.43
2022-11-24T05:02:27.077Z,3.00
2022-11-24T05:03:28.373Z,3.07
2022-11-24T05:04:29.713Z,2.77
2022-11-24T05:05:31.148Z,2.83
2022-11-24T05:06:33.219Z,3.23
2022-11-24T05:07:34.893Z,3.07
2022-11-24T05:08:36.414Z,3.10
2022-11-24T05:09:59.504Z,3.03
2022-11-24T05:11:05.117Z,3.13
2022-11-24T05:12:06.880Z,3.20
2022-11-24T05:13:12.141Z,3.17
2022-11-24T05:14:13.501Z,3.03
2022-11-24T05:15:15.011Z,3.03
2022-11-24T05:16:16.403Z,2.77
2022-11-24T05:17:17.748Z,2.23
2022-11-24T05:18:19.128Z,2.90
2022-11-24T05:19:20.451Z,3.53
2022-11-24T05:20:21.811Z,3.53
2022-11-24T05:21:23.482Z,3.10
2022-11-24T05:22:25.239Z,3.53
2022-11-24T05:23:26.985Z,2.90
2022-11-24T05:24:28.321Z,2.87
2022-11-24T05:25:29.816Z,3.43
2022-11-24T05:26:31.230Z,2.67
2022-11-24T05:27:32.658Z,3.77
2022-11-24T05:28:34.034Z,2.87
2022-11-24T05:29:35.362Z,3.03
2022-11-24T05:30:38.419Z,3.60
2022-11-24T05:31:39.781Z,2.93
2022-11-24T05:32:41.210Z,3.00
2022-11-24T05:33:43.248Z,2.87
2022-11-24T05:34:44.635Z,2.63
2022-11-24T05:35:46.376Z,3.33
2022-11-24T05:36:53.616Z,2.80
2022-11-24T05:37:55.152Z,3.33
2022-11-24T05:38:56.516Z,3.40
2022-11-24T05:39:57.820Z,2.90
2022-11-24T05:41:03.459Z,2.80
2022-11-24T05:42:26.077Z,2.80
2022-11-24T05:43:27.644Z,2.80
2022-11-24T05:44:28.959Z,3.20
2022-11-24T05:45:30.242Z,3.50
2022-11-24T05:46:31.594Z,3.03
2022-11-24T05:47:32.959Z,3.23
2022-11-24T05:48:34.275Z,3.30
2022-11-24T05:49:35.643Z,3.07
2022-11-24T05:50:37.047Z,3.30
2022-11-24T05:51:38.360Z,2.90
2022-11-24T05:52:39.915Z,3.13
2022-11-24T05:53:41.221Z,2.97
2022-11-24T05:54:42.522Z,3.20
2022-11-24T05:55:43.853Z,3.30
2022-11-24T05:56:45.220Z,2.77
2022-11-24T05:57:46.652Z,2.80
2022-11-24T05:58:47.995Z,2.93
2022-11-24T05:59:49.329Z,2.77
2022-11-24T06:00:50.679Z,3.10
2022-11-24T06:01:52.144Z,2.63
2022-11-24T06:02:53.670Z,3.27
2022-11-24T06:03:55.053Z,2.80
2022-11-24T06:04:56.555Z,2.80
2022-11-24T06:05:57.878Z,2.90
2022-11-24T06:06:59.171Z,3.13
2022-11-24T06:08:00.828Z,2.80
2022-11-24T06:09:02.145Z,2.53
2022-11-24T06:10:03.835Z,2.80
2022-11-24T06:11:20.201Z,3.33
2022-11-24T06:12:21.637Z,2.97
2022-11-24T06:13:22.963Z,3.00
2022-11-24T06:14:24.364Z,3.10
2022-11-24T06:15:34.000Z,2.87
2022-11-24T06:16:36.375Z,2.70
2022-11-24T06:17:38.473Z,2.83
2022-11-24T06:18:40.170Z,2.57
2022-11-24T06:19:42.367Z,3.00
2022-11-24T06:21:09.181Z,3.43
2022-11-24T06:22:07.671Z,2.90
2022-11-24T06:23:10.390Z,3.20
2022-11-24T06:24:11.818Z,3.37
2022-11-24T06:25:13.108Z,2.77
2022-11-24T06:26:14.677Z,3.30
2022-11-24T06:27:16.073Z,2.73
2022-11-24T06:28:17.705Z,2.73
2022-11-24T06:29:19.043Z,3.20
2022-11-24T06:30:20.433Z,3.10
2022-11-24T06:31:21.807Z,3.07
2022-11-24T06:32:24.132Z,2.53
2022-11-24T06:33:25.463Z,3.67
2022-11-24T06:34:26.765Z,2.93
2022-11-24T06:35:28.131Z,3.93
2022-11-24T06:36:29.510Z,4.30
2022-11-24T06:37:30.888Z,2.83
2022-11-24T06:38:32.602Z,3.27
2022-11-24T06:39:33.972Z,3.53
2022-11-24T06:40:35.289Z,3.23
2022-11-24T06:41:36.711Z,3.73
2022-11-24T06:42:38.100Z,3.30
2022-11-24T06:43:39.451Z,3.30
2022-11-24T06:44:43.183Z,2.80
2022-11-24T06:45:44.492Z,3.17
2022-11-24T06:46:45.952Z,3.77
2022-11-24T06:47:47.354Z,3.30
2022-11-24T06:48:51.634Z,3.23
2022-11-24T06:49:53.031Z,3.10
2022-11-24T06:50:58.330Z,3.60
2022-11-24T06:51:59.686Z,2.97
2022-11-24T06:53:01.000Z,3.33
2022-11-24T06:54:05.814Z,2.80
2022-11-24T06:55:07.345Z,3.03
2022-11-24T06:56:15.833Z,3.10
2022-11-24T06:57:17.796Z,3.17
2022-11-24T06:58:19.141Z,3.43
2022-11-24T06:59:20.576Z,3.23
2022-11-24T07:00:22.201Z,3.17
2022-11-24T07:01:25.165Z,3.13
2022-11-24T07:02:27.435Z,3.50
2022-11-24T07:03:29.242Z,3.00
2022-11-24T07:04:30.599Z,3.40
2022-11-24T07:05:31.898Z,3.27
2022-11-24T07:06:33.306Z,3.30
2022-11-24T07:07:34.725Z,2.93
2022-11-24T07:08:36.240Z,2.90
2022-11-24T07:09:37.590Z,3.27
2022-11-24T07:10:50.240Z,2.90
2022-11-24T07:11:54.547Z,3.67
2022-11-24T07:12:55.845Z,3.27
2022-11-24T07:14:00.126Z,3.60
2022-11-24T07:15:01.732Z,3.47
2022-11-24T07:16:16.280Z,3.43
2022-11-24T07:17:17.705Z,3.70
2022-11-24T07:18:19.018Z,3.03
2022-11-24T07:19:24.722Z,3.27
2022-11-24T07:20:26.523Z,3.40
2022-11-24T07:21:28.279Z,3.60
2022-11-24T07:22:29.616Z,3.33
2022-11-24T07:23:30.975Z,3.50
2022-11-24T07:24:32.552Z,3.00
2022-11-24T07:25:34.268Z,3.17
2022-11-24T07:26:37.480Z,3.13
2022-11-24T07:27:39.284Z,3.17
2022-11-24T07:28:40.616Z,5.30
2022-11-24T07:29:42.023Z,4.13
2022-11-24T07:30:43.323Z,3.57
2022-11-24T07:31:45.945Z,4.47
2022-11-24T07:32:47.371Z,4.17
2022-11-24T07:33:52.393Z,3.43
2022-11-24T07:34:53.883Z,3.57
2022-11-24T07:35:59.088Z,4.23
2022-11-24T07:37:00.950Z,4.40
2022-11-24T07:38:02.424Z,4.57
2022-11-24T07:39:05.944Z,3.70
2022-11-24T07:40:07.972Z,3.57
2022-11-24T07:41:10.374Z,3.80
2022-11-24T07:42:11.798Z,3.50
2022-11-24T07:43:18.634Z,3.80
2022-11-24T07:44:22.089Z,3.93
2022-11-24T07:45:23.448Z,3.63
2022-11-24T07:46:24.989Z,2.73
2022-11-24T07:47:26.399Z,3.17
2022-11-24T07:48:27.834Z,3.20
2022-11-24T07:49:29.279Z,3.80
2022-11-24T07:50:30.593Z,3.73
2022-11-24T07:51:32.006Z,3.40
2022-11-24T07:52:33.367Z,4.03
2022-11-24T07:53:35.326Z,2.90
2022-11-24T07:54:36.939Z,2.67
2022-11-24T07:55:38.443Z,4.17
2022-11-24T07:56:39.766Z,3.70
2022-11-24T07:57:41.248Z,3.53
2022-11-24T07:58:42.725Z,3.50
2022-11-24T07:59:44.024Z,3.20
2022-11-24T08:00:45.458Z,3.33
2022-11-24T08:01:46.820Z,3.40
2022-11-24T08:02:48.177Z,3.47
2022-11-24T08:03:49.556Z,4.00
2022-11-24T08:04:50.909Z,3.50
2022-11-24T08:06:16.459Z,3.23
2022-11-24T08:07:16.676Z,3.17
2022-11-24T08:08:18.139Z,3.27
2022-11-24T08:09:19.575Z,3.67
2022-11-24T08:10:20.915Z,4.27
2022-11-24T08:11:22.409Z,3.53
2022-11-24T08:12:23.778Z,4.13
2022-11-24T08:13:25.160Z,4.50
2022-11-24T08:14:26.481Z,4.47
2022-11-24T08:15:27.962Z,4.03
2022-11-24T08:16:29.398Z,4.07
2022-11-24T08:17:30.891Z,3.33
2022-11-24T08:18:32.496Z,3.20
2022-11-24T08:19:34.799Z,4.80
2022-11-24T08:20:36.136Z,3.20
2022-11-24T08:21:37.964Z,3.40
2022-11-24T08:22:39.348Z,4.40
2022-11-24T08:23:41.272Z,3.60
2022-11-24T08:24:47.059Z,2.80
2022-11-24T08:25:51.757Z,3.03
2022-11-24T08:26:57.006Z,2.50
2022-11-24T08:28:02.214Z,2.93
2022-11-24T08:29:03.543Z,2.97
2022-11-24T08:30:05.093Z,2.60
2022-11-24T08:31:11.572Z,2.70
2022-11-24T08:32:16.224Z,2.50
2022-11-24T08:33:21.868Z,2.90
2022-11-24T08:34:24.220Z,2.77
2022-11-24T08:35:25.538Z,2.17
2022-11-24T08:36:26.897Z,2.53
2022-11-24T08:37:29.316Z,2.63
2022-11-24T08:38:30.648Z,2.70
2022-11-24T08:39:32.242Z,2.83
2022-11-24T08:40:33.585Z,4.00
2022-11-24T08:41:34.877Z,3.47
2022-11-24T08:42:36.185Z,2.70
2022-11-24T08:43:38.012Z,3.10
2022-11-24T08:44:39.338Z,2.40
2022-11-24T08:45:41.920Z,2.83
2022-11-24T08:46:44.397Z,2.60
2022-11-24T08:47:45.813Z,3.03
2022-11-24T08:48:50.789Z,3.13
2022-11-24T08:49:52.119Z,2.70
2022-11-24T08:50:53.548Z,2.63
2022-11-24T08:51:56.865Z,2.70
2022-11-24T08:52:58.221Z,3.00
2022-11-24T08:54:00.645Z,2.10
2022-11-24T08:55:01.954Z,2.13
2022-11-24T08:56:05.130Z,2.33
2022-11-24T08:57:06.498Z,2.83
2022-11-24T08:58:07.811Z,2.47
2022-11-24T08:59:09.175Z,2.40
2022-11-24T09:00:11.142Z,2.40
2022-11-24T09:01:14.277Z,2.40
2022-11-24T09:02:15.736Z,2.23
2022-11-24T09:03:17.045Z,2.07
2022-11-24T09:04:18.404Z,2.33
2022-11-24T09:05:50.123Z,2.30
2022-11-24T09:06:41.166Z,2.70
2022-11-24T09:07:42.506Z,2.30
2022-11-24T09:08:43.860Z,2.63
2022-11-24T09:09:45.240Z,2.47
2022-11-24T09:10:46.729Z,2.10
2022-11-24T09:11:48.066Z,2.43
2022-11-24T09:12:51.155Z,2.00
2022-11-24T09:13:53.064Z,2.13
2022-11-24T09:14:54.345Z,1.77
2022-11-24T09:15:55.679Z,2.00
2022-11-24T09:16:57.059Z,2.40
2022-11-24T09:17:58.417Z,1.97
2022-11-24T09:19:04.487Z,1.90
2022-11-24T09:20:06.127Z,1.97
2022-11-24T09:21:08.069Z,1.63
2022-11-24T09:22:09.360Z,1.90
2022-11-24T09:23:10.767Z,1.60
2022-11-24T09:24:12.125Z,1.70
2022-11-24T09:25:14.832Z,1.70
2022-11-24T09:26:20.353Z,1.63
2022-11-24T09:27:21.847Z,2.63
2022-11-24T09:28:23.183Z,1.87
2022-11-24T09:29:24.623Z,2.27
2022-11-24T09:30:26.246Z,1.73
2022-11-24T09:31:29.049Z,1.83
2022-11-24T09:32:30.782Z,1.50
2022-11-24T09:33:32.568Z,1.97
2022-11-24T09:34:33.933Z,1.60
2022-11-24T09:35:36.984Z,2.03
2022-11-24T09:36:38.621Z,1.63
2022-11-24T09:37:40.115Z,1.80
2022-11-24T09:38:41.706Z,1.50
2022-11-24T09:39:43.097Z,1.50
2022-11-24T09:40:44.395Z,1.60
2022-11-24T09:41:48.791Z,1.80
2022-11-24T09:42:55.207Z,1.87
2022-11-24T09:44:06.254Z,1.80
2022-11-24T09:45:49.379Z,2.23
2022-11-24T09:46:54.113Z,1.40
2022-11-24T09:48:25.032Z,2.10
2022-11-24T09:49:51.416Z,1.50
2022-11-24T09:50:53.429Z,1.70
2022-11-24T09:51:56.155Z,2.10
2022-11-24T09:53:03.649Z,2.20
2022-11-24T09:54:16.724Z,1.90
2022-11-24T09:55:31.550Z,3.53
2022-11-24T09:56:34.562Z,1.97
2022-11-24T09:57:37.785Z,1.70
2022-11-24T09:58:45.691Z,1.60
2022-11-24T09:59:47.437Z,1.83
2022-11-24T10:00:50.344Z,1.40
2022-11-24T10:01:51.815Z,1.50
2022-11-24T10:02:53.225Z,1.50
2022-11-24T10:03:54.875Z,1.47
2022-11-24T10:04:56.564Z,1.87
2022-11-24T10:05:59.216Z,1.83
2022-11-24T10:07:12.872Z,1.43
2022-11-24T10:08:17.288Z,1.40
2022-11-24T10:09:18.677Z,1.27
2022-11-24T10:10:25.432Z,1.83
2022-11-24T10:11:38.135Z,1.40
2022-11-24T10:12:43.312Z,1.60
2022-11-24T10:13:58.278Z,2.00
2022-11-24T10:14:59.545Z,1.90
2022-11-24T10:16:03.606Z,1.70
2022-11-24T10:17:04.958Z,1.43
2022-11-24T10:18:16.820Z,1.70
2022-11-24T10:19:36.933Z,1.70
2022-11-24T10:20:56.915Z,2.00
2022-11-24T10:22:17.192Z,1.70
2022-11-24T10:23:39.723Z,1.80
2022-11-24T10:24:54.601Z,2.10
2022-11-24T10:26:00.146Z,2.00
2022-11-24T10:27:03.790Z,2.00
2022-11-24T10:28:09.624Z,1.87
2022-11-24T10:29:29.237Z,2.30
2022-11-24T10:30:30.983Z,1.97
2022-11-24T10:31:36.344Z,3.40
2022-11-24T10:32:43.067Z,2.37
2022-11-24T10:33:44.513Z,2.40
2022-11-24T10:34:47.282Z,2.20
2022-11-24T10:35:48.599Z,1.63
2022-11-24T10:37:06.209Z,1.60
2022-11-24T10:38:16.628Z,2.67
2022-11-24T10:39:28.561Z,2.37
2022-11-24T10:40:56.629Z,2.33
2022-11-24T10:42:02.745Z,1.93
2022-11-24T10:43:10.235Z,1.53
2022-11-24T10:44:13.389Z,1.50
2022-11-24T10:45:16.676Z,1.67
2022-11-24T10:46:25.238Z,1.67
2022-11-24T10:47:26.784Z,2.30
2022-11-24T10:48:30.166Z,2.03
2022-11-24T10:49:32.652Z,2.17
2022-11-24T10:50:39.289Z,1.87
2022-11-24T10:51:43.384Z,1.30
2022-11-24T10:52:51.085Z,1.67
2022-11-24T10:53:54.554Z,1.80
2022-11-24T10:54:59.948Z,1.90
2022-11-24T10:56:02.743Z,2.23
2022-11-24T10:57:04.263Z,1.57
2022-11-24T10:58:14.949Z,2.33
2022-11-24T10:59:22.360Z,1.40
2022-11-24T11:00:23.684Z,1.87
2022-11-24T11:01:31.175Z,1.83
2022-11-24T11:02:34.817Z,1.10
2022-11-24T11:03:45.212Z,1.97
2022-11-24T11:04:46.572Z,1.60
2022-11-24T11:05:50.263Z,1.50
2022-11-24T11:06:51.730Z,1.70
2022-11-24T11:08:11.471Z,1.60
2022-11-24T11:09:19.957Z,1.73
2022-11-24T11:10:23.268Z,1.37
2022-11-24T11:11:28.294Z,1.67
2022-11-24T11:12:47.636Z,1.83
2022-11-24T11:13:51.915Z,1.70
2022-11-24T11:14:53.218Z,1.50
2022-11-24T11:15:55.655Z,1.93
2022-11-24T11:16:59.939Z,1.97
2022-11-24T11:18:01.682Z,1.63
2022-11-24T11:19:15.742Z,1.77
2022-11-24T11:20:27.909Z,1.70
2022-11-24T11:21:37.151Z,1.37
2022-11-24T11:22:38.575Z,1.70
2022-11-24T11:23:40.233Z,1.73
2022-11-24T11:24:43.252Z,1.70
2022-11-24T11:25:44.755Z,1.60
2022-11-24T11:26:46.128Z,1.80
2022-11-24T11:27:48.285Z,1.60
2022-11-24T11:31:15.045Z,1.53
2022-11-24T11:34:44.980Z,1.83
2022-11-24T11:35:46.443Z,1.37
2022-11-24T11:36:51.911Z,1.60
2022-11-24T11:37:54.378Z,1.97
2022-11-24T11:38:55.741Z,1.70
2022-11-24T11:39:57.969Z,1.67
2022-11-24T11:41:00.388Z,1.90
2022-11-24T11:42:45.214Z,1.87
2022-11-24T11:43:40.905Z,1.70
2022-11-24T11:45:02.613Z,1.47
2022-11-24T11:46:09.486Z,2.03
2022-11-24T11:47:15.543Z,2.00
2022-11-24T11:48:22.027Z,1.90
2022-11-24T11:49:23.660Z,1.90
2022-11-24T11:50:27.186Z,1.90
2022-11-24T11:51:47.432Z,1.73
2022-11-24T11:53:03.064Z,1.87
2022-11-24T11:54:07.254Z,2.10
2022-11-24T11:55:25.773Z,1.80
2022-11-24T11:56:30.152Z,1.97
2022-11-24T11:57:38.103Z,1.70
2022-11-24T11:58:50.834Z,2.13
2022-11-24T12:00:01.846Z,1.93
2022-11-24T12:01:13.885Z,2.10
2022-11-24T12:02:34.101Z,2.27
2022-11-24T12:03:56.917Z,2.03
2022-11-24T12:05:00.722Z,1.73
2022-11-24T12:06:22.375Z,1.60
2022-11-24T12:07:23.692Z,2.30
2022-11-24T12:09:17.828Z,2.13
2022-11-24T12:10:10.885Z,2.10
2022-11-24T12:11:18.447Z,2.00
2022-11-24T12:12:36.508Z,1.77
2022-11-24T12:13:40.934Z,2.03
2022-11-24T12:14:57.058Z,1.87
2022-11-24T12:16:03.200Z,1.83
2022-11-24T12:17:07.583Z,1.90
2022-11-24T12:18:48.655Z,2.53
2022-11-24T12:20:03.675Z,1.77
2022-11-24T12:21:14.151Z,1.87
2022-11-24T12:22:22.044Z,1.93
2022-11-24T12:23:27.371Z,1.73
2022-11-24T12:24:28.744Z,2.17
2022-11-24T12:25:39.898Z,5.23
2022-11-24T12:26:57.077Z,2.67
2022-11-24T12:28:17.595Z,2.03
2022-11-24T12:29:34.522Z,2.30
2022-11-24T12:30:43.592Z,2.80
2022-11-24T12:31:47.859Z,2.23
2022-11-24T12:33:07.928Z,2.17
2022-11-24T12:34:28.222Z,2.20
2022-11-24T12:35:33.495Z,2.20
2022-11-24T12:36:47.091Z,3.17
2022-11-24T12:37:59.658Z,3.03
2022-11-24T12:39:17.078Z,1.83
2022-11-24T12:40:29.542Z,2.17
2022-11-24T12:41:45.083Z,2.27
2022-11-24T12:42:46.489Z,2.50
2022-11-24T12:43:52.880Z,2.50
2022-11-24T12:44:55.176Z,2.23
2022-11-24T12:46:00.203Z,2.10
2022-11-24T12:47:10.812Z,2.20
2022-11-24T12:48:27.542Z,2.00
2022-11-24T12:49:42.468Z,2.20
2022-11-24T12:50:44.436Z,1.80
2022-11-24T12:51:48.030Z,2.10
2022-11-24T12:53:00.804Z,2.50
2022-11-24T12:54:04.268Z,2.20
2022-11-24T12:55:12.606Z,1.90
2022-11-24T12:56:15.929Z,2.43
2022-11-24T12:57:17.224Z,2.07
2022-11-24T12:58:24.684Z,1.93
2022-11-24T12:59:29.113Z,2.30
2022-11-24T13:00:49.330Z,2.10
2022-11-24T13:01:53.839Z,2.77
2022-11-24T13:03:04.434Z,2.10
2022-11-24T13:04:14.840Z,2.30
2022-11-24T13:05:24.030Z,2.50
2022-11-24T13:06:34.504Z,2.10
2022-11-24T13:07:46.393Z,2.07
2022-11-24T13:08:47.887Z,2.30
2022-11-24T13:10:07.952Z,2.67
2022-11-24T13:11:25.940Z,2.33
2022-11-24T13:12:27.275Z,2.30
2022-11-24T13:13:48.551Z,3.07
2022-11-24T13:14:50.007Z,2.40
2022-11-24T13:16:20.660Z,2.10
2022-11-24T13:17:33.514Z,2.20
2022-11-24T13:18:44.234Z,2.30
2022-11-24T13:19:46.000Z,2.00
2022-11-24T13:20:47.654Z,2.10
2022-11-24T13:22:07.364Z,2.27
2022-11-24T13:23:20.885Z,2.30
2022-11-24T13:24:24.059Z,2.70
2022-11-24T13:25:28.682Z,2.17
2022-11-24T13:26:31.099Z,2.73
2022-11-24T13:27:40.356Z,2.13
2022-11-24T13:29:05.686Z,2.03
2022-11-24T13:30:33.140Z,2.10
2022-11-24T13:31:34.728Z,2.67
2022-11-24T13:32:36.218Z,2.17
2022-11-24T13:33:38.234Z,1.83
2022-11-24T13:34:39.707Z,2.87
2022-11-24T13:36:01.149Z,1.90
2022-11-24T13:37:33.877Z,2.20
2022-11-24T13:38:42.069Z,2.40
2022-11-24T13:39:50.511Z,2.40
2022-11-24T13:41:13.408Z,2.00
2022-11-24T13:42:42.546Z,2.27
2022-11-24T13:43:35.552Z,2.50
2022-11-24T13:44:43.341Z,3.00
2022-11-24T13:45:45.117Z,2.47
2022-11-24T13:47:06.262Z,2.93
2022-11-24T13:48:21.382Z,2.10
2022-11-24T13:49:23.800Z,2.90
2022-11-24T13:50:45.578Z,2.40
2022-11-24T13:51:46.930Z,2.50
2022-11-24T13:53:00.892Z,2.30
2022-11-24T13:54:02.437Z,2.60
2022-11-24T13:55:19.430Z,2.30
2022-11-24T13:56:25.303Z,2.33
2022-11-24T13:57:38.065Z,2.53
2022-11-24T13:58:42.093Z,2.70
2022-11-24T13:59:43.799Z,2.33
2022-11-24T14:01:03.259Z,2.10
2022-11-24T14:02:18.475Z,2.10
2022-11-24T14:03:22.733Z,2.70
2022-11-24T14:05:51.126Z,2.60
2022-11-24T14:06:52.397Z,2.50
2022-11-24T14:07:54.004Z,2.70
2022-11-24T14:08:55.957Z,2.30
2022-11-24T14:09:57.623Z,2.27
2022-11-24T14:11:00.186Z,2.73
2022-11-24T14:12:31.335Z,2.57
2022-11-24T14:13:32.955Z,2.30
2022-11-24T14:14:34.715Z,2.67
2022-11-24T14:15:36.557Z,2.60
2022-11-24T14:16:38.108Z,2.77
2022-11-24T14:17:39.776Z,2.70
2022-11-24T14:18:42.336Z,2.60
2022-11-24T14:19:45.244Z,2.33
2022-11-24T14:20:46.759Z,2.47
2022-11-24T14:21:48.082Z,2.63
2022-11-24T14:22:49.469Z,2.53
2022-11-24T14:23:53.999Z,2.50